Time;durP1;ratioP1;P1;durP2;ratioP2;P2;SDS_P1;SDS_P2;PMS_P1;PMS_P2;Temp;Humidity;BMP_temperature;BMP_pressure;BME280_temperature;BME280_humidity;BME280_pressure;Samples;Min_cycle;Max_cycle;Signal;HPM_P1;HPM_P2
2021/09/15 00:02:20;;;;;;;9.70;8.15;;;23.40;99.90;;;;;;4990555;28;20559;-68
2021/09/15 00:04:47;;;;;;;8.98;8.07;;;23.30;99.90;;;;;;4990706;28;20205;-71
2021/09/15 00:07:14;;;;;;;8.93;7.75;;;23.40;99.90;;;;;;4990334;28;20276;-70
2021/09/15 00:09:41;;;;;;;12.85;8.10;;;23.40;99.90;;;;;;4990288;28;20209;-70
2021/09/15 00:12:08;;;;;;;10.68;8.40;;;23.40;99.90;;;;;;4990763;28;20209;-70
2021/09/15 00:14:36;;;;;;;10.07;8.15;;;23.30;99.90;;;;;;4990267;28;20209;-72
2021/09/15 00:17:04;;;;;;;8.25;4.80;;;23.30;99.90;;;;;;4994158;28;20283;-71
2021/09/15 00:19:31;;;;;;;6.18;3.08;;;23.10;99.90;;;;;;4993568;28;20209;-70
2021/09/15 00:21:58;;;;;;;2.83;2.15;;;22.70;99.90;;;;;;4994223;28;20283;-71
2021/09/15 00:24:25;;;;;;;3.60;1.73;;;22.20;99.90;;;;;;4993847;28;20255;-71
2021/09/15 00:26:51;;;;;;;5.50;2.38;;;21.90;99.90;;;;;;4993646;28;20208;-70
2021/09/15 00:29:18;;;;;;;4.45;1.85;;;21.60;99.90;;;;;;4994146;28;20263;-69
2021/09/15 00:31:47;;;;;;;3.67;2.13;;;21.40;99.90;;;;;;4994115;28;20262;-69
2021/09/15 00:34:14;;;;;;;2.53;1.33;;;21.30;99.90;;;;;;4993971;28;20637;-70
2021/09/15 00:36:41;;;;;;;3.00;1.63;;;21.10;99.90;;;;;;4993153;28;20267;-69
2021/09/15 00:39:08;;;;;;;1.40;1.15;;;21.20;99.90;;;;;;4993762;28;20677;-68
2021/09/15 00:41:35;;;;;;;3.75;1.52;;;21.10;99.90;;;;;;4993091;28;20255;-69
2021/09/15 00:44:07;;;;;;;4.20;2.38;;;21.10;99.90;;;;;;4993645;28;20232;-69
2021/09/15 00:46:34;;;;;;;5.47;2.45;;;21.10;99.90;;;;;;4993243;28;20270;-69
2021/09/15 00:49:03;;;;;;;2.53;2.03;;;21.10;99.90;;;;;;4993356;28;20267;-69
2021/09/15 00:51:35;;;;;;;3.10;1.73;;;21.20;99.90;;;;;;4992868;28;20243;-70
2021/09/15 00:54:04;;;;;;;3.08;1.50;;;21.10;99.90;;;;;;4993350;28;20213;-70
2021/09/15 00:56:32;;;;;;;4.57;1.90;;;21.10;99.90;;;;;;4993203;28;20232;-71
2021/09/15 00:58:59;;;;;;;4.32;1.38;;;21.20;99.90;;;;;;4993404;28;20209;-69
2021/09/15 01:01:26;;;;;;;1.98;1.20;;;21.40;99.90;;;;;;4992628;28;20205;-70
2021/09/15 01:03:53;;;;;;;3.20;1.63;;;21.40;99.90;;;;;;4993505;28;20205;-70
2021/09/15 01:06:22;;;;;;;5.53;1.42;;;21.40;99.90;;;;;;4992653;28;20263;-69
2021/09/15 01:08:49;;;;;;;4.68;1.50;;;21.30;99.90;;;;;;4993396;28;20220;-70
2021/09/15 01:11:16;;;;;;;2.63;1.88;;;21.30;99.90;;;;;;4993481;28;20260;-69
2021/09/15 01:13:46;;;;;;;5.45;1.95;;;21.10;99.90;;;;;;4992792;28;20643;-69
2021/09/15 01:16:13;;;;;;;5.15;2.80;;;21.10;99.90;;;;;;4992981;28;20213;-68
2021/09/15 01:18:40;;;;;;;6.95;2.63;;;21.10;99.90;;;;;;4992921;28;20232;-69
2021/09/15 01:21:10;;;;;;;3.35;1.67;;;21.00;99.90;;;;;;4993009;28;20240;-70
2021/09/15 01:23:37;;;;;;;2.90;1.52;;;21.00;99.90;;;;;;4990721;28;20205;-70
2021/09/15 01:26:04;;;;;;;2.58;1.40;;;21.00;99.90;;;;;;4992708;28;20279;-71
2021/09/15 01:28:32;;;;;;;4.55;2.15;;;21.00;99.90;;;;;;4991832;28;20256;-70
2021/09/15 01:30:59;;;;;;;4.68;1.58;;;21.00;99.90;;;;;;4992893;28;20275;-72
2021/09/15 01:33:26;;;;;;;4.53;1.60;;;20.90;99.90;;;;;;4992693;28;20208;-74
2021/09/15 01:35:53;;;;;;;2.47;1.65;;;20.80;99.90;;;;;;4992298;28;20255;-74
2021/09/15 01:38:21;;;;;;;1.92;1.48;;;20.80;99.90;;;;;;4993048;28;20228;-68
2021/09/15 01:40:48;;;;;;;3.00;1.65;;;20.70;99.90;;;;;;4992376;28;20240;-73
2021/09/15 01:43:17;;;;;;;3.95;1.83;;;20.70;99.90;;;;;;4993254;28;20292;-73
2021/09/15 01:45:45;;;;;;;6.07;2.70;;;20.80;99.90;;;;;;4992464;28;20213;-75
2021/09/15 01:48:12;;;;;;;5.75;2.10;;;20.80;99.90;;;;;;4992216;28;20669;-74
2021/09/15 01:50:39;;;;;;;2.75;1.77;;;20.80;99.90;;;;;;4991777;28;20264;-76
2021/09/15 01:53:06;;;;;;;4.40;2.63;;;20.70;99.90;;;;;;4992320;28;20272;-74
2021/09/15 01:55:34;;;;;;;4.35;2.53;;;20.70;99.90;;;;;;4992115;28;20255;-73
2021/09/15 01:58:01;;;;;;;4.18;2.70;;;20.70;99.90;;;;;;4991837;28;20786;-75
2021/09/15 02:00:28;;;;;;;4.43;2.55;;;20.70;99.90;;;;;;4991984;28;20739;-73
2021/09/15 02:02:56;;;;;;;7.18;3.13;;;20.60;99.90;;;;;;4991929;28;20213;-71
2021/09/15 02:05:23;;;;;;;4.88;2.42;;;20.60;99.90;;;;;;4978673;28;20201;-70
2021/09/15 02:07:50;;;;;;;6.68;3.30;;;20.50;99.90;;;;;;4992049;28;20213;-71
2021/09/15 02:10:17;;;;;;;5.55;2.97;;;20.40;99.90;;;;;;4992083;28;20660;-70
2021/09/15 02:12:45;;;;;;;4.85;2.45;;;20.30;99.90;;;;;;4991931;28;20283;-71
2021/09/15 02:15:14;;;;;;;5.35;2.35;;;20.30;99.90;;;;;;4991970;28;20201;-72
2021/09/15 02:17:41;;;;;;;9.70;2.50;;;20.30;99.90;;;;;;4991346;28;20287;-71
2021/09/15 02:20:10;;;;;;;5.50;2.35;;;20.30;99.90;;;;;;4991866;28;20271;-72
2021/09/15 02:22:37;;;;;;;6.25;3.08;;;20.40;99.90;;;;;;4991441;28;20292;-72
2021/09/15 02:25:04;;;;;;;6.63;3.05;;;20.30;99.90;;;;;;4991870;28;20287;-69
2021/09/15 02:27:31;;;;;;;5.55;2.90;;;20.20;99.90;;;;;;4991348;28;20208;-72
2021/09/15 02:30:00;;;;;;;5.85;2.67;;;20.20;99.90;;;;;;4991972;28;20213;-69
2021/09/15 02:32:27;;;;;;;3.33;2.60;;;20.10;99.90;;;;;;4990873;28;20209;-70
2021/09/15 02:34:54;;;;;;;7.90;3.45;;;20.20;99.90;;;;;;4991577;28;20208;-70
2021/09/15 02:37:20;;;;;;;7.35;2.88;;;20.10;99.90;;;;;;4991155;28;20213;-71
2021/09/15 02:39:47;;;;;;;4.70;2.85;;;20.10;99.90;;;;;;4991160;28;20290;-69
2021/09/15 02:42:14;;;;;;;5.50;2.53;;;20.20;99.90;;;;;;4991566;28;20213;-70
2021/09/15 02:44:41;;;;;;;9.82;3.42;;;20.10;99.90;;;;;;4991312;28;20213;-73
2021/09/15 02:47:10;;;;;;;3.83;2.78;;;20.10;99.90;;;;;;4991449;28;20212;-73
2021/09/15 02:49:37;;;;;;;6.18;3.33;;;20.10;99.90;;;;;;4990920;28;20263;-74
2021/09/15 02:52:04;;;;;;;7.40;3.33;;;20.00;99.90;;;;;;4991567;28;20212;-73
2021/09/15 02:54:31;;;;;;;5.78;3.00;;;20.10;99.90;;;;;;4990647;28;20205;-73
2021/09/15 02:56:58;;;;;;;4.65;2.90;;;20.10;99.90;;;;;;4991290;28;20213;-71
2021/09/15 02:59:25;;;;;;;5.55;3.28;;;19.90;99.90;;;;;;4990571;28;20236;-70
2021/09/15 03:01:52;;;;;;;8.70;3.35;;;20.00;99.90;;;;;;4991163;28;20213;-69
2021/09/15 03:04:20;;;;;;;7.57;4.50;;;20.00;99.90;;;;;;4991237;28;20208;-70
2021/09/15 03:06:47;;;;;;;5.22;3.25;;;19.90;99.90;;;;;;4991924;28;20212;-72
2021/09/15 03:09:14;;;;;;;4.68;3.60;;;20.10;99.90;;;;;;4991497;28;20216;-71
2021/09/15 03:11:41;;;;;;;7.25;3.20;;;20.00;99.90;;;;;;4990754;28;20271;-71
2021/09/15 03:14:08;;;;;;;4.65;2.45;;;20.00;99.90;;;;;;4991385;28;20208;-73
2021/09/15 03:16:35;;;;;;;4.82;3.00;;;19.90;99.90;;;;;;4990219;28;20283;-72
2021/09/15 03:19:02;;;;;;;9.48;3.03;;;19.90;99.90;;;;;;4991284;28;20241;-73
2021/09/15 03:21:30;;;;;;;6.40;2.33;;;19.70;99.90;;;;;;4990730;28;20217;-71
2021/09/15 03:23:57;;;;;;;5.25;2.65;;;19.80;99.90;;;;;;4991263;28;20267;-71
2021/09/15 03:26:25;;;;;;;7.82;2.95;;;19.80;99.90;;;;;;4990499;28;20212;-73
2021/09/15 03:28:51;;;;;;;6.13;2.45;;;19.60;99.90;;;;;;4991080;28;20204;-72
2021/09/15 03:31:18;;;;;;;6.15;2.78;;;19.70;99.90;;;;;;4990971;28;20204;-74
2021/09/15 03:33:45;;;;;;;6.07;1.95;;;19.50;99.90;;;;;;4991278;28;20208;-73
2021/09/15 03:36:12;;;;;;;2.42;2.15;;;19.40;99.90;;;;;;4991347;28;20279;-78
2021/09/15 03:38:41;;;;;;;4.30;2.38;;;;;;;;;;4990576;28;20786;-79
2021/09/15 03:41:08;;;;;;;5.95;2.55;;;18.70;99.90;;;;;;4990963;28;20208;-73
2021/09/15 03:43:35;;;;;;;4.13;1.50;;;19.40;99.90;;;;;;4990598;28;20208;-70
2021/09/15 03:46:02;;;;;;;1.77;1.45;;;19.40;99.90;;;;;;4990338;28;20217;-71
2021/09/15 03:48:29;;;;;;;4.15;2.55;;;19.40;99.90;;;;;;4990805;28;20264;-71
2021/09/15 03:50:56;;;;;;;3.90;1.80;;;19.50;99.90;;;;;;4993285;28;20628;-75
2021/09/15 03:53:23;;;;;;;5.18;1.80;;;19.40;99.90;;;;;;4994515;28;20213;-75
2021/09/15 03:55:51;;;;;;;3.22;1.92;;;19.40;99.90;;;;;;4994801;28;20208;-70
2021/09/15 03:58:18;;;;;;;2.22;1.48;;;19.40;99.90;;;;;;4994858;28;20228;-76
2021/09/15 04:00:45;;;;;;;5.18;2.38;;;19.40;99.90;;;;;;4994837;28;20296;-74
2021/09/15 04:03:12;;;;;;;1.70;1.58;;;19.40;99.90;;;;;;4994424;28;20244;-74
2021/09/15 04:05:39;;;;;;;5.85;2.33;;;19.40;99.90;;;;;;4994378;28;20216;-74
2021/09/15 04:08:06;;;;;;;1.77;1.60;;;19.60;99.90;;;;;;4994226;28;20220;-74
2021/09/15 04:10:33;;;;;;;4.60;1.92;;;19.40;99.90;;;;;;4994005;28;20727;-73
2021/09/15 04:13:02;;;;;;;2.60;2.15;;;19.50;99.90;;;;;;4993995;28;20275;-73
2021/09/15 04:15:29;;;;;;;3.65;1.30;;;19.60;99.90;;;;;;4993845;28;20255;-73
2021/09/15 04:17:56;;;;;;;6.25;1.98;;;19.50;99.90;;;;;;4994156;28;20228;-76
2021/09/15 04:20:23;;;;;;;4.03;2.40;;;19.60;99.90;;;;;;4994106;28;20201;-76
2021/09/15 04:22:50;;;;;;;2.50;1.45;;;;;;;;;;4994090;28;20275;-69
2021/09/15 04:33:33;;;;;;;2.10;1.15;;;19.50;99.90;;;;;;4993541;28;20687;-74
2021/09/15 04:36:00;;;;;;;2.58;1.42;;;19.50;99.90;;;;;;4993795;28;20635;-75
2021/09/15 04:38:27;;;;;;;1.98;1.10;;;19.30;99.90;;;;;;4993742;28;20237;-74
2021/09/15 04:40:54;;;;;;;1.88;1.33;;;19.50;99.90;;;;;;4993733;28;20252;-73
2021/09/15 04:43:22;;;;;;;4.07;1.58;;;19.50;99.90;;;;;;4993318;28;20209;-72
2021/09/15 04:45:49;;;;;;;2.45;1.10;;;19.60;99.90;;;;;;4993834;28;20271;-74
2021/09/15 04:48:16;;;;;;;3.42;1.42;;;19.40;99.90;;;;;;4993854;28;20217;-75
2021/09/15 04:50:43;;;;;;;2.72;1.60;;;19.40;99.90;;;;;;4992905;28;20692;-72
2021/09/15 04:53:10;;;;;;;2.78;1.58;;;19.40;99.90;;;;;;4993961;28;20213;-71
2021/09/15 04:55:37;;;;;;;6.55;1.42;;;19.40;99.90;;;;;;4993036;28;20212;-70
2021/09/15 04:58:05;;;;;;;2.85;1.30;;;19.40;99.90;;;;;;4992407;28;20684;-72
2021/09/15 05:00:33;;;;;;;7.90;2.08;;;19.40;99.90;;;;;;4993516;28;20219;-71
2021/09/15 05:03:01;;;;;;;4.88;1.20;;;19.60;99.90;;;;;;4991283;28;20263;-71
2021/09/15 05:05:28;;;;;;;1.45;1.17;;;19.60;99.90;;;;;;4993232;28;20264;-70
2021/09/15 05:07:55;;;;;;;3.72;1.92;;;19.50;99.90;;;;;;4992609;28;20221;-71
2021/09/15 05:10:25;;;;;;;2.42;1.45;;;19.50;99.90;;;;;;4993127;28;20208;-70
2021/09/15 05:12:52;;;;;;;3.75;1.25;;;19.40;99.90;;;;;;4993076;28;20204;-69
2021/09/15 05:15:19;;;;;;;3.17;1.33;;;19.50;99.90;;;;;;4993438;28;20280;-71
2021/09/15 05:17:48;;;;;;;2.60;1.40;;;19.50;99.90;;;;;;4993225;28;20213;-70
2021/09/15 05:20:18;;;;;;;5.95;1.63;;;19.60;99.90;;;;;;4992539;28;20236;-71
2021/09/15 05:22:46;;;;;;;3.65;1.38;;;19.60;99.90;;;;;;4993259;28;20307;-71
2021/09/15 05:25:14;;;;;;;3.40;1.10;;;19.50;99.90;;;;;;4991927;28;20244;-71
2021/09/15 05:27:41;;;;;;;1.73;0.90;;;19.60;99.90;;;;;;4992863;28;20212;-71
2021/09/15 05:30:09;;;;;;;5.07;1.70;;;19.50;99.90;;;;;;4992073;28;20213;-71
2021/09/15 05:32:37;;;;;;;1.83;1.15;;;19.50;99.90;;;;;;4992439;28;20695;-69
2021/09/15 05:35:07;;;;;;;1.88;1.08;;;20.60;99.90;;;;;;4992599;28;20205;-73
2021/09/15 05:37:34;;;;;;;4.00;1.45;;;19.20;99.90;;;;;;4992664;28;20201;-71
2021/09/15 05:40:01;;;;;;;1.40;1.15;;;19.40;99.90;;;;;;4992244;28;20244;-71
2021/09/15 05:42:28;;;;;;;3.05;1.60;;;19.40;99.90;;;;;;4992499;28;20352;-70
2021/09/15 05:44:58;;;;;;;3.22;1.48;;;19.40;99.90;;;;;;4992258;28;20212;-71
2021/09/15 05:47:25;;;;;;;1.67;1.30;;;19.50;99.90;;;;;;4990920;28;20207;-73
2021/09/15 05:49:52;;;;;;;1.63;1.30;;;18.90;99.90;;;;;;4992458;28;20209;-73
2021/09/15 05:52:20;;;;;;;3.00;1.05;;;19.50;99.90;;;;;;4992753;28;20259;-75
2021/09/15 05:54:47;;;;;;;3.78;1.73;;;19.30;99.90;;;;;;4983631;28;20456;-76
2021/09/15 05:57:14;;;;;;;2.30;1.23;;;19.80;99.90;;;;;;4991249;28;20672;-77
2021/09/15 05:59:41;;;;;;;3.40;1.10;;;19.60;99.90;;;;;;4991955;28;20704;-74
2021/09/15 06:02:09;;;;;;;2.80;1.00;;;19.50;99.90;;;;;;4991460;28;20676;-75
2021/09/15 06:04:35;;;;;;;2.70;1.70;;;19.80;99.90;;;;;;4991964;28;20560;-73
2021/09/15 06:07:03;;;;;;;2.33;1.10;;;19.80;99.90;;;;;;4991452;28;20566;-72
2021/09/15 06:09:31;;;;;;;1.55;1.00;;;19.90;99.90;;;;;;4991583;28;20256;-73
2021/09/15 06:11:58;;;;;;;2.55;1.15;;;19.70;99.90;;;;;;4991803;28;20633;-72
2021/09/15 06:14:25;;;;;;;2.72;1.45;;;19.80;99.90;;;;;;4992029;28;20201;-73
2021/09/15 06:16:52;;;;;;;2.72;1.17;;;19.80;99.90;;;;;;4992045;28;20267;-73
2021/09/15 06:19:19;;;;;;;2.67;1.30;;;19.90;99.90;;;;;;4991515;28;20766;-73
2021/09/15 06:21:46;;;;;;;1.33;1.23;;;20.00;99.90;;;;;;4991836;28;20291;-72
2021/09/15 06:24:14;;;;;;;3.13;1.48;;;19.90;99.90;;;;;;4991190;28;20217;-72
2021/09/15 06:26:42;;;;;;;2.08;1.30;;;19.90;99.90;;;;;;4991405;28;20317;-74
2021/09/15 06:29:09;;;;;;;1.67;1.25;;;19.90;99.90;;;;;;4991183;28;20255;-74
2021/09/15 06:31:36;;;;;;;1.30;1.20;;;20.00;99.90;;;;;;4991653;28;20259;-74
2021/09/15 06:34:05;;;;;;;1.88;0.88;;;19.90;99.90;;;;;;4991172;28;20263;-74
2021/09/15 06:36:33;;;;;;;3.53;1.45;;;20.00;99.90;;;;;;4991732;28;20208;-74
2021/09/15 06:39:00;;;;;;;4.80;2.72;;;20.00;99.90;;;;;;5004545;28;20282;-73
2021/09/15 06:41:27;;;;;;;6.38;2.30;;;20.10;99.90;;;;;;4990418;28;20578;-72
2021/09/15 06:43:55;;;;;;;4.00;1.98;;;20.00;99.90;;;;;;4987078;28;20291;-74
2021/09/15 06:46:22;;;;;;;2.83;1.75;;;19.80;99.90;;;;;;4990170;28;20205;-74
2021/09/15 06:48:50;;;;;;;5.97;1.52;;;19.20;1.00;;;;;;4980051;28;20308;-75
2021/09/15 06:51:17;;;;;;;2.88;1.10;;;19.20;1.00;;;;;;4989734;28;20685;-75
2021/09/15 06:53:44;;;;;;;16.60;2.28;;;19.20;1.00;;;;;;4991161;28;20212;-75
2021/09/15 06:56:12;;;;;;;4.28;1.33;;;19.30;1.00;;;;;;4988194;28;20596;-72
2021/09/15 06:58:40;;;;;;;2.10;1.73;;;19.30;1.00;;;;;;4988624;28;20255;-73
2021/09/15 07:01:08;;;;;;;1.90;1.60;;;19.20;1.00;;;;;;4988974;28;20205;-70
2021/09/15 07:03:35;;;;;;;5.90;1.73;;;19.20;1.00;;;;;;4987388;28;20243;-71
2021/09/15 07:06:02;;;;;;;3.72;1.50;;;19.20;1.00;;;;;;4987777;28;20217;-70
2021/09/15 07:08:29;;;;;;;3.78;1.63;;;19.10;1.00;;;;;;4989065;28;20212;-69
2021/09/15 07:10:56;;;;;;;2.85;1.55;;;19.10;1.00;;;;;;4990337;28;20208;-70
2021/09/15 07:13:23;;;;;;;5.13;1.73;;;19.10;1.00;;;;;;4990780;28;20227;-70
2021/09/15 07:15:52;;;;;;;2.40;1.45;;;19.10;1.00;;;;;;4989981;28;20740;-68
2021/09/15 07:18:21;;;;;;;3.15;1.25;;;19.20;1.00;;;;;;4988987;28;20204;-69
2021/09/15 07:20:47;;;;;;;5.38;1.67;;;19.40;1.00;;;;;;4990968;28;20724;-69
2021/09/15 07:23:14;;;;;;;1.95;1.60;;;19.60;99.90;;;;;;4988495;28;20669;-70
2021/09/15 07:25:41;;;;;;;2.97;2.15;;;19.50;99.90;;;;;;4991795;28;20676;-76
2021/09/15 07:28:08;;;;;;;3.28;1.88;;;19.60;99.90;;;;;;4993612;28;20661;-73
2021/09/15 07:30:35;;;;;;;2.85;1.90;;;19.70;99.90;;;;;;4994560;28;20736;-73
2021/09/15 07:33:02;;;;;;;6.50;2.05;;;18.60;99.90;;;;;;4990953;28;20270;-74
2021/09/15 07:35:31;;;;;;;9.70;2.55;;;19.30;99.90;;;;;;4988175;28;20208;-75
2021/09/15 07:37:58;;;;;;;1.63;1.33;;;19.50;99.90;;;;;;4993441;28;20264;-75
2021/09/15 07:40:25;;;;;;;6.70;2.40;;;19.40;99.90;;;;;;4992529;28;20291;-70
2021/09/15 07:42:51;;;;;;;4.95;1.88;;;19.40;99.90;;;;;;4994667;28;20209;-70
2021/09/15 07:45:18;;;;;;;3.00;1.90;;;19.50;99.90;;;;;;4994978;28;20205;-72
2021/09/15 07:47:45;;;;;;;7.18;1.88;;;19.40;99.90;;;;;;4994611;28;20219;-71
2021/09/15 07:50:13;;;;;;;4.00;1.75;;;19.60;99.90;;;;;;4993780;28;20264;-71
2021/09/15 07:52:41;;;;;;;4.90;1.60;;;20.00;99.90;;;;;;4993647;28;20204;-72
2021/09/15 07:55:09;;;;;;;2.40;1.58;;;20.10;99.90;;;;;;4993065;28;20259;-72
2021/09/15 07:57:36;;;;;;;1.45;1.35;;;20.10;99.90;;;;;;4993950;28;20201;-72
2021/09/15 08:00:04;;;;;;;3.78;1.38;;;19.90;99.90;;;;;;4993461;28;20287;-71
2021/09/15 08:02:31;;;;;;;1.60;1.08;;;19.90;99.90;;;;;;4994096;28;20673;-70
2021/09/15 08:04:58;;;;;;;5.97;1.83;;;20.00;99.90;;;;;;4993633;28;20213;-71
2021/09/15 08:07:25;;;;;;;6.00;1.60;;;20.00;99.90;;;;;;4994107;28;20283;-71
2021/09/15 08:09:53;;;;;;;2.30;1.33;;;20.00;99.90;;;;;;4994046;28;20641;-70
2021/09/15 08:12:20;;;;;;;6.35;1.83;;;20.30;99.90;;;;;;4989817;28;20252;-70
2021/09/15 08:14:47;;;;;;;2.00;1.42;;;20.50;99.90;;;;;;4994426;28;20213;-71
2021/09/15 08:17:14;;;;;;;2.00;1.35;;;20.60;99.90;;;;;;4993523;28;20568;-69
2021/09/15 08:19:41;;;;;;;1.55;1.13;;;20.70;99.90;;;;;;4993544;28;20232;-71
2021/09/15 08:22:08;;;;;;;1.90;1.27;;;20.70;99.90;;;;;;4993622;28;20759;-71
2021/09/15 08:24:35;;;;;;;2.35;0.90;;;21.10;99.90;;;;;;4987294;28;20252;-72
2021/09/15 08:27:03;;;;;;;10.40;2.00;;;21.60;99.90;;;;;;4993099;28;20213;-72
2021/09/15 08:29:30;;;;;;;2.53;1.40;;;22.00;99.90;;;;;;4993951;28;20260;-72
2021/09/15 08:31:57;;;;;;;5.45;1.27;;;22.40;99.90;;;;;;4993378;28;20680;-71
2021/09/15 08:34:24;;;;;;;2.05;1.67;;;22.00;99.90;;;;;;4993895;28;20264;-72
2021/09/15 08:36:51;;;;;;;2.15;1.42;;;22.10;99.90;;;;;;4992444;28;20208;-70
2021/09/15 08:39:18;;;;;;;6.45;2.22;;;21.80;99.90;;;;;;4993836;28;20233;-72
2021/09/15 08:41:46;;;;;;;3.08;1.58;;;21.80;99.90;;;;;;4993536;28;20205;-72
2021/09/15 08:44:15;;;;;;;3.97;2.25;;;21.70;99.90;;;;;;4993007;28;20681;-73
2021/09/15 08:46:43;;;;;;;2.20;1.85;;;21.70;99.90;;;;;;4993582;28;20684;-69
2021/09/15 08:49:11;;;;;;;2.80;1.58;;;21.70;99.90;;;;;;4992849;28;20209;-72
2021/09/15 08:51:38;;;;;;;5.07;1.63;;;21.70;99.90;;;;;;4993413;28;20685;-73
2021/09/15 08:54:07;;;;;;;3.47;1.90;;;21.50;99.90;;;;;;4992872;28;20287;-68
2021/09/15 08:56:33;;;;;;;3.00;2.05;;;21.70;99.90;;;;;;4993792;28;20209;-72
2021/09/15 08:59:01;;;;;;;3.47;3.00;;;22.00;99.90;;;;;;4992997;28;20582;-72
2021/09/15 09:01:29;;;;;;;4.63;2.65;;;22.30;99.90;;;;;;4993050;28;20275;-71
2021/09/15 09:03:58;;;;;;;4.90;2.55;;;22.60;99.90;;;;;;4993019;28;20268;-68
2021/09/15 09:06:26;;;;;;;4.13;2.53;;;22.90;99.90;;;;;;4993142;28;20204;-69
2021/09/15 09:08:55;;;;;;;2.65;2.45;;;22.40;99.90;;;;;;4992612;28;20229;-69
2021/09/15 09:11:25;;;;;;;5.38;3.00;;;22.10;99.90;;;;;;4993174;28;20217;-69
2021/09/15 09:13:54;;;;;;;5.65;2.75;;;22.20;99.90;;;;;;4993415;28;20212;-68
2021/09/15 09:16:36;;;;;;;3.25;2.95;;;22.60;99.90;;;;;;4992894;28;20205;-68
2021/09/15 09:19:06;;;;;;;3.17;2.38;;;23.50;99.90;;;;;;4992767;28;20287;-68
2021/09/15 09:21:35;;;;;;;3.75;2.75;;;23.80;99.90;;;;;;4992942;28;20237;-70
2021/09/15 09:24:03;;;;;;;5.30;3.40;;;24.10;99.90;;;;;;4992907;28;20205;-68
2021/09/15 09:26:52;;;;;;;7.20;2.55;;;24.00;99.90;;;;;;4992479;28;20626;-67
2021/09/15 09:29:22;;;;;;;2.45;2.25;;;24.00;99.90;;;;;;4992509;28;20561;-68
2021/09/15 09:31:58;;;;;;;6.60;3.15;;;24.10;99.90;;;;;;4986168;28;20244;-68
2021/09/15 09:34:28;;;;;;;6.88;3.25;;;25.30;99.90;;;;;;4978957;28;20256;-69
2021/09/15 09:37:05;;;;;;;4.90;3.05;;;24.90;99.90;;;;;;4983976;28;20208;-68
2021/09/15 09:39:41;;;;;;;5.82;2.53;;;24.50;99.90;;;;;;4978975;28;20205;-67
2021/09/15 09:42:31;;;;;;;3.10;2.50;;;24.30;99.90;;;;;;4985982;28;20208;-68
2021/09/15 09:45:12;;;;;;;4.50;2.90;;;24.20;99.90;;;;;;4990669;28;20205;-68
2021/09/15 09:47:39;;;;;;;8.15;3.55;;;24.30;99.90;;;;;;4991906;28;20208;-67
2021/09/15 09:50:10;;;;;;;4.53;2.80;;;24.40;99.90;;;;;;4982750;28;20264;-68
2021/09/15 09:52:58;;;;;;;6.70;3.53;;;24.80;99.90;;;;;;4981559;28;20206;-68
2021/09/15 09:55:26;;;;;;;4.78;3.40;;;25.40;99.90;;;;;;4983162;28;20205;-68
2021/09/15 09:57:55;;;;;;;6.10;3.50;;;26.10;99.90;;;;;;4991033;28;20205;-68
2021/09/15 10:00:26;;;;;;;9.77;5.57;;;26.30;99.90;;;;;;4982862;28;20228;-69
2021/09/15 10:02:53;;;;;;;5.20;4.53;;;27.30;99.90;;;;;;4986254;28;20244;-69
2021/09/15 10:05:23;;;;;;;3.30;2.97;;;26.60;99.90;;;;;;4992127;28;20213;-68
2021/09/15 10:07:51;;;;;;;6.22;2.78;;;26.20;99.90;;;;;;4992073;28;20684;-68
2021/09/15 10:10:20;;;;;;;3.58;2.80;;;26.40;99.90;;;;;;4990928;28;20221;-68
2021/09/15 10:12:50;;;;;;;3.50;3.20;;;26.40;99.90;;;;;;4989705;28;20664;-68
2021/09/15 10:15:18;;;;;;;3.90;3.05;;;26.60;99.90;;;;;;4991546;28;20201;-69
2021/09/15 10:17:48;;;;;;;17.45;5.20;;;26.40;99.90;;;;;;4992074;28;20208;-69
2021/09/15 10:20:17;;;;;;;6.20;3.00;;;26.90;99.90;;;;;;4988228;28;20233;-68
2021/09/15 10:22:48;;;;;;;3.42;3.13;;;27.00;99.90;;;;;;4984229;28;20213;-68
2021/09/15 10:25:16;;;;;;;3.97;2.70;;;27.40;99.90;;;;;;4991225;28;20260;-69
2021/09/15 10:28:01;;;;;;;5.57;3.42;;;26.80;99.90;;;;;;4991395;28;20635;-69
2021/09/15 10:30:46;;;;;;;7.82;3.28;;;26.60;99.90;;;;;;4991105;28;20209;-69
2021/09/15 10:33:47;;;;;;;4.63;2.85;;;26.50;99.90;;;;;;4991327;28;20646;-69
2021/09/15 10:36:37;;;;;;;6.43;3.22;;;26.50;99.90;;;;;;4989523;28;20252;-69
2021/09/15 10:39:07;;;;;;;5.25;3.78;;;26.30;99.90;;;;;;4987200;28;20209;-69
2021/09/15 10:41:39;;;;;;;6.85;3.20;;;26.20;99.90;;;;;;4984650;28;20233;-73
2021/09/15 10:44:08;;;;;;;8.15;3.38;;;26.30;99.90;;;;;;4977797;28;20215;-75
2021/09/15 10:46:35;;;;;;;7.47;4.13;;;26.00;99.90;;;;;;4976180;28;20209;-80
2021/09/15 10:49:40;;;;;;;4.95;3.50;;;26.10;99.90;;;;;;4973017;28;20292;-78
2021/09/15 10:52:26;;;;;;;5.50;3.55;;;26.30;99.90;;;;;;4974589;28;20216;-78
2021/09/15 10:54:56;;;;;;;7.45;4.22;;;26.30;99.90;;;;;;4971809;28;20213;-76
2021/09/15 10:57:31;;;;;;;5.82;4.05;;;26.40;99.90;;;;;;4979383;28;20281;-75
2021/09/15 11:00:00;;;;;;;4.40;3.55;;;26.50;99.90;;;;;;4983406;28;20208;-76
2021/09/15 11:02:30;;;;;;;6.65;4.10;;;26.60;99.90;;;;;;4982032;28;20272;-75
2021/09/15 11:04:58;;;;;;;4.28;3.40;;;26.60;99.90;;;;;;4980658;28;20260;-74
2021/09/15 11:08:00;;;;;;;4.28;3.88;;;26.50;99.90;;;;;;4984043;28;20217;-77
2021/09/15 11:10:39;;;;;;;5.88;4.38;;;26.40;99.90;;;;;;4979384;28;20208;-75
2021/09/15 11:13:08;;;;;;;5.97;4.63;;;26.50;99.90;;;;;;4980173;28;20314;-75
2021/09/15 11:15:36;;;;;;;7.07;3.25;;;26.50;99.90;;;;;;4980823;28;20261;-78
2021/09/15 11:18:04;;;;;;;9.82;4.03;;;26.70;99.90;;;;;;4977184;28;20264;-76
2021/09/15 11:20:34;;;;;;;12.65;5.18;;;26.70;99.90;;;;;;4986373;28;20655;-76
2021/09/15 11:23:05;;;;;;;6.63;4.30;;;26.60;99.90;;;;;;4981349;28;20586;-75
2021/09/15 11:25:33;;;;;;;6.88;4.40;;;26.70;99.90;;;;;;4985189;28;20201;-76
2021/09/15 11:28:09;;;;;;;6.78;4.35;;;26.70;99.90;;;;;;4985606;28;20271;-77
2021/09/15 11:30:38;;;;;;;5.70;4.25;;;26.70;99.90;;;;;;4982341;28;20213;-73
2021/09/15 11:33:06;;;;;;;5.63;3.50;;;26.80;99.90;;;;;;4981584;28;20633;-74
2021/09/15 11:35:34;;;;;;;7.45;5.15;;;27.00;99.90;;;;;;4989356;28;20232;-77
2021/09/15 11:38:02;;;;;;;6.90;3.60;;;27.00;99.90;;;;;;4989659;28;20676;-74
2021/09/15 11:40:31;;;;;;;9.68;5.40;;;26.40;99.90;;;;;;4989687;28;20236;-75
2021/09/15 11:43:04;;;;;;;6.93;4.18;;;26.00;99.90;;;;;;4989449;28;20665;-74
2021/09/15 11:45:34;;;;;;;7.95;4.38;;;25.90;99.90;;;;;;4989947;28;20687;-75
2021/09/15 11:48:01;;;;;;;15.82;5.45;;;25.90;99.90;;;;;;4990028;28;20209;-74
2021/09/15 11:50:32;;;;;;;6.38;3.80;;;26.00;99.90;;;;;;4988818;28;20208;-74
2021/09/15 11:53:05;;;;;;;7.03;5.05;;;26.10;99.90;;;;;;4988872;28;20299;-75
2021/09/15 11:55:36;;;;;;;7.20;3.67;;;26.40;99.90;;;;;;4978458;28;20260;-75
2021/09/15 11:58:03;;;;;;;9.50;4.47;;;26.60;99.90;;;;;;4982467;28;20216;-75
2021/09/15 12:00:33;;;;;;;7.07;4.65;;;26.80;99.90;;;;;;4978809;28;20228;-76
2021/09/15 12:03:03;;;;;;;8.48;4.00;;;26.90;99.90;;;;;;4985131;28;20689;-76
2021/09/15 12:05:30;;;;;;;6.78;4.45;;;27.20;99.90;;;;;;4986949;28;20212;-75
2021/09/15 12:07:58;;;;;;;13.52;4.95;;;27.30;99.90;;;;;;4979789;28;20679;-74
2021/09/15 12:10:27;;;;;;;8.38;5.00;;;27.20;99.90;;;;;;4981104;28;20209;-74
2021/09/15 12:12:59;;;;;;;10.77;4.55;;;27.00;99.90;;;;;;4987856;28;20268;-74
2021/09/15 12:15:26;;;;;;;9.68;4.38;;;27.10;99.90;;;;;;4990130;28;20263;-75
2021/09/15 12:17:57;;;;;;;6.40;4.13;;;27.10;99.90;;;;;;4981393;28;20232;-76
2021/09/15 12:20:42;;;;;;;10.20;4.82;;;26.80;99.90;;;;;;4988227;28;20212;-79
2021/09/15 12:23:10;;;;;;;10.63;4.55;;;26.50;99.90;;;;;;4987493;28;20220;-78
2021/09/15 12:25:37;;;;;;;8.80;4.13;;;26.40;99.90;;;;;;4982940;28;20209;-75
2021/09/15 12:28:06;;;;;;;8.05;4.63;;;26.60;99.90;;;;;;4985884;28;20248;-74
2021/09/15 12:30:34;;;;;;;8.57;4.25;;;27.10;99.90;;;;;;4988134;28;21250;-74
2021/09/15 12:33:03;;;;;;;8.40;4.70;;;27.50;99.90;;;;;;4986812;28;20213;-74
2021/09/15 12:35:35;;;;;;;10.07;4.90;;;27.90;99.90;;;;;;4983609;28;20217;-73
2021/09/15 12:38:05;;;;;;;10.68;5.15;;;28.00;99.90;;;;;;4986905;28;20271;-74
2021/09/15 12:40:33;;;;;;;8.07;3.97;;;27.60;99.90;;;;;;4985075;28;20217;-74
2021/09/15 12:43:02;;;;;;;11.95;5.68;;;27.20;99.90;;;;;;4980986;28;20693;-75
2021/09/15 12:45:30;;;;;;;10.68;5.65;;;27.30;99.90;;;;;;4988271;28;20259;-74
2021/09/15 12:47:58;;;;;;;11.75;4.80;;;27.20;99.90;;;;;;4982567;28;20271;-74
2021/09/15 12:50:28;;;;;;;11.68;5.50;;;27.20;99.90;;;;;;4990504;28;20204;-75
2021/09/15 12:53:08;;;;;;;9.27;4.38;;;27.30;99.90;;;;;;4991882;28;20213;-75
2021/09/15 12:55:40;;;;;;;11.23;4.35;;;27.30;99.90;;;;;;4992533;28;20201;-76
2021/09/15 12:58:09;;;;;;;15.32;4.95;;;27.50;99.90;;;;;;4993109;28;20643;-73
2021/09/15 13:00:38;;;;;;;9.50;5.53;;;27.40;99.90;;;;;;4992959;28;20209;-75
2021/09/15 13:03:06;;;;;;;12.52;5.18;;;27.40;99.90;;;;;;4992920;28;20264;-75
2021/09/15 13:05:36;;;;;;;10.32;5.80;;;27.30;99.90;;;;;;4993298;28;20209;-75